createdAt,value
2022-08-29T00:01:58.056Z,82.88
2022-08-29T00:04:24.459Z,83.10
2022-08-29T00:06:50.798Z,83.02
2022-08-29T00:09:17.104Z,85.49
2022-08-29T00:11:46.479Z,84.02
2022-08-29T00:14:23.690Z,83.78
2022-08-29T00:16:50.173Z,82.98
2022-08-29T00:19:16.550Z,82.81
2022-08-29T00:21:42.854Z,82.85
2022-08-29T00:24:09.513Z,83.50
2022-08-29T00:26:35.833Z,83.97
2022-08-29T00:29:02.131Z,87.05
2022-08-29T00:31:28.515Z,84.76
2022-08-29T00:33:57.515Z,83.80
2022-08-29T00:36:23.836Z,83.55
2022-08-29T00:38:50.147Z,85.79
2022-08-29T00:41:16.496Z,85.94
2022-08-29T00:43:42.795Z,84.87
2022-08-29T00:46:09.186Z,84.18
2022-08-29T00:48:35.557Z,83.44
2022-08-29T00:51:02.988Z,85.88
2022-08-29T00:53:29.287Z,85.21
2022-08-29T00:55:55.608Z,84.58
2022-08-29T00:58:21.898Z,84.02
2022-08-29T01:00:48.269Z,84.08
2022-08-29T01:03:14.618Z,83.72
2022-08-29T01:05:40.936Z,83.60
2022-08-29T01:08:07.279Z,84.56
2022-08-29T01:10:52.422Z,86.47
2022-08-29T01:13:18.731Z,84.93
2022-08-29T01:15:45.859Z,84.81
2022-08-29T01:18:12.092Z,85.34
2022-08-29T01:20:38.649Z,85.25
2022-08-29T01:23:04.934Z,85.30
2022-08-29T01:25:31.348Z,84.68
2022-08-29T01:27:57.635Z,86.07
2022-08-29T01:30:23.979Z,85.50
2022-08-29T01:32:50.747Z,84.54
2022-08-29T01:35:17.046Z,84.13
2022-08-29T01:37:43.978Z,84.59
2022-08-29T01:40:10.316Z,84.31
2022-08-29T01:42:37.374Z,83.90
2022-08-29T01:45:03.820Z,83.91
2022-08-29T01:47:30.140Z,83.51
2022-08-29T01:49:56.463Z,83.46
2022-08-29T01:52:22.772Z,83.00
2022-08-29T01:54:49.409Z,82.85
2022-08-29T01:57:15.961Z,82.68
2022-08-29T01:59:42.270Z,82.68
2022-08-29T02:02:08.623Z,82.90
2022-08-29T02:04:34.977Z,83.06
2022-08-29T02:07:01.274Z,82.77
2022-08-29T02:09:27.591Z,82.53
2022-08-29T02:11:54.628Z,83.48
2022-08-29T02:14:20.885Z,82.85
2022-08-29T02:16:47.299Z,83.15
2022-08-29T02:19:13.751Z,82.85
2022-08-29T02:21:40.988Z,82.16
2022-08-29T02:24:24.009Z,82.55
2022-08-29T02:26:50.887Z,82.37
2022-08-29T02:29:17.339Z,82.44
2022-08-29T02:31:43.668Z,82.61
2022-08-29T02:34:10.172Z,83.04
2022-08-29T02:36:37.827Z,83.88
2022-08-29T02:39:04.149Z,83.46
2022-08-29T02:41:31.617Z,82.84
2022-08-29T02:43:58.474Z,83.23
2022-08-29T02:46:24.840Z,83.15
2022-08-29T02:49:00.003Z,83.12
2022-08-29T02:51:27.732Z,82.80
2022-08-29T02:53:55.693Z,83.24
2022-08-29T02:56:21.914Z,83.27
2022-08-29T02:58:49.876Z,82.89
2022-08-29T03:01:16.136Z,83.18
2022-08-29T03:03:42.482Z,83.45
2022-08-29T03:06:08.789Z,83.71
2022-08-29T03:08:35.088Z,83.37
2022-08-29T03:11:02.040Z,83.46
2022-08-29T03:13:28.355Z,83.79
2022-08-29T03:15:54.723Z,84.08
2022-08-29T03:18:21.060Z,83.32
2022-08-29T03:20:48.898Z,83.39
2022-08-29T03:23:15.944Z,83.31
2022-08-29T03:25:42.237Z,83.31
2022-08-29T03:28:08.593Z,83.30
2022-08-29T03:30:34.898Z,83.80
2022-08-29T03:33:02.360Z,83.79
2022-08-29T03:35:28.655Z,83.57
2022-08-29T03:37:54.951Z,83.58
2022-08-29T03:40:21.297Z,83.26
2022-08-29T03:42:47.988Z,83.80
2022-08-29T03:45:14.301Z,83.53
2022-08-29T03:47:40.904Z,83.78
2022-08-29T03:50:07.223Z,84.43
2022-08-29T03:52:33.526Z,84.24
2022-08-29T03:55:00.567Z,83.91
2022-08-29T03:57:26.797Z,83.69
2022-08-29T03:59:54.524Z,83.61
2022-08-29T04:02:20.831Z,83.52
2022-08-29T04:05:07.988Z,83.43
2022-08-29T04:07:34.794Z,83.96
2022-08-29T04:10:01.177Z,83.91
2022-08-29T04:12:27.516Z,83.95
2022-08-29T04:14:53.825Z,83.45
2022-08-29T04:17:20.143Z,83.47
2022-08-29T04:19:46.479Z,83.61
2022-08-29T04:22:13.679Z,83.63
2022-08-29T04:24:39.978Z,83.85
2022-08-29T04:27:06.279Z,83.05
2022-08-29T04:29:32.581Z,83.57
2022-08-29T04:31:58.885Z,83.56
2022-08-29T04:34:25.305Z,84.20
2022-08-29T04:36:51.608Z,83.80
2022-08-29T04:39:18.749Z,83.81
2022-08-29T04:41:45.172Z,83.40
2022-08-29T04:44:11.534Z,84.31
2022-08-29T04:46:37.881Z,84.07
2022-08-29T04:49:04.688Z,84.84
2022-08-29T04:51:31.087Z,84.82
2022-08-29T04:53:57.378Z,84.64
2022-08-29T04:56:23.677Z,84.48
2022-08-29T04:58:51.886Z,84.96
2022-08-29T05:01:18.242Z,84.63
2022-08-29T05:03:44.565Z,84.20
2022-08-29T05:06:12.076Z,83.44
2022-08-29T05:08:38.381Z,83.26
2022-08-29T05:11:07.097Z,83.10
2022-08-29T05:13:33.535Z,83.16
2022-08-29T05:15:59.889Z,83.34
2022-08-29T05:18:26.215Z,82.78
2022-08-29T05:20:52.628Z,82.40
2022-08-29T05:23:18.932Z,82.01
2022-08-29T05:25:45.267Z,81.92
2022-08-29T05:28:11.646Z,82.21
2022-08-29T05:30:38.691Z,81.42
2022-08-29T05:33:04.984Z,80.39
2022-08-29T05:35:31.310Z,79.63
2022-08-29T05:37:57.616Z,79.87
2022-08-29T05:40:25.037Z,80.80
2022-08-29T05:42:51.424Z,80.39
2022-08-29T05:45:17.751Z,79.96
2022-08-29T05:47:44.047Z,78.92
2022-08-29T05:50:11.728Z,77.92
2022-08-29T05:52:38.034Z,78.62
2022-08-29T05:55:04.340Z,77.85
2022-08-29T05:57:30.967Z,77.82
2022-08-29T05:59:57.816Z,77.24
2022-08-29T06:02:25.029Z,75.85
2022-08-29T06:04:51.565Z,75.67
2022-08-29T06:07:17.896Z,75.46
2022-08-29T06:09:44.229Z,74.96
2022-08-29T06:12:10.536Z,74.64
2022-08-29T06:14:36.850Z,74.60
2022-08-29T06:17:03.160Z,74.98
2022-08-29T06:19:31.915Z,73.48
2022-08-29T06:21:58.222Z,72.24
2022-08-29T06:24:24.527Z,71.89
2022-08-29T06:26:50.824Z,71.17
2022-08-29T06:29:17.189Z,71.45
2022-08-29T06:31:43.525Z,70.39
2022-08-29T06:34:09.845Z,70.33
2022-08-29T06:36:36.904Z,69.71
2022-08-29T06:39:03.586Z,69.13
2022-08-29T06:41:29.916Z,68.93
2022-08-29T06:43:56.713Z,68.31
2022-08-29T06:46:23.182Z,68.00
2022-08-29T06:48:49.581Z,65.79
2022-08-29T06:51:15.889Z,65.68
2022-08-29T06:53:42.539Z,64.35
2022-08-29T06:56:11.624Z,64.60
2022-08-29T06:58:38.348Z,64.89
2022-08-29T07:01:04.777Z,63.25
2022-08-29T07:03:31.164Z,63.04
2022-08-29T07:05:57.469Z,62.23
2022-08-29T07:08:23.802Z,62.60
2022-08-29T07:10:50.088Z,63.63
2022-08-29T07:13:16.570Z,63.71
2022-08-29T07:15:43.055Z,61.93
2022-08-29T07:18:09.551Z,60.83
2022-08-29T07:20:37.553Z,61.85
2022-08-29T07:23:03.782Z,62.23
2022-08-29T07:25:30.080Z,62.48
2022-08-29T07:27:56.379Z,62.60
2022-08-29T07:30:22.843Z,61.98
2022-08-29T07:32:49.274Z,62.03
2022-08-29T07:35:19.786Z,61.74
2022-08-29T07:37:55.523Z,61.81
2022-08-29T07:40:22.239Z,60.69
2022-08-29T07:42:48.700Z,61.85
2022-08-29T07:45:14.993Z,61.44
2022-08-29T07:47:41.321Z,60.81
2022-08-29T07:50:07.626Z,60.21
2022-08-29T07:52:34.808Z,59.59
2022-08-29T07:55:01.124Z,59.47
2022-08-29T07:57:27.429Z,60.31
2022-08-29T07:59:53.734Z,59.42
2022-08-29T08:02:20.141Z,59.93
2022-08-29T08:04:46.476Z,61.26
2022-08-29T08:07:13.704Z,60.42
2022-08-29T08:09:40.402Z,59.66
2022-08-29T08:12:08.451Z,59.83
2022-08-29T08:14:35.320Z,59.04
2022-08-29T08:17:01.703Z,58.01
2022-08-29T08:19:28.056Z,59.36
2022-08-29T08:21:54.361Z,58.60
2022-08-29T08:24:20.655Z,58.62
2022-08-29T08:26:46.977Z,58.07
2022-08-29T08:29:13.282Z,57.72
2022-08-29T08:31:39.811Z,58.18
2022-08-29T08:34:06.909Z,57.44
2022-08-29T08:36:40.207Z,58.37
2022-08-29T08:39:07.240Z,58.54
2022-08-29T08:41:33.594Z,58.41
2022-08-29T08:43:59.892Z,56.36
2022-08-29T08:46:26.237Z,57.43
2022-08-29T08:48:52.862Z,56.41
2022-08-29T08:51:19.196Z,57.46
2022-08-29T08:53:45.500Z,56.99
2022-08-29T08:56:11.817Z,56.72
2022-08-29T08:58:38.115Z,56.65
2022-08-29T09:01:04.828Z,55.56
2022-08-29T09:03:33.306Z,56.74
2022-08-29T09:05:59.622Z,56.73
2022-08-29T09:08:25.944Z,55.97
2022-08-29T09:10:56.640Z,55.81
2022-08-29T09:13:24.977Z,55.81
2022-08-29T09:15:51.274Z,55.16
2022-08-29T09:18:21.850Z,56.54
2022-08-29T09:20:50.263Z,54.47
2022-08-29T09:23:16.693Z,54.35
2022-08-29T09:25:43.101Z,53.92
2022-08-29T09:28:09.825Z,54.06
2022-08-29T09:30:36.661Z,53.54
2022-08-29T09:33:03.012Z,55.09
2022-08-29T09:35:29.422Z,53.67
2022-08-29T09:37:55.723Z,54.02
2022-08-29T09:40:22.123Z,53.54
2022-08-29T09:42:48.499Z,52.35
2022-08-29T09:45:14.799Z,52.63
2022-08-29T09:47:41.119Z,53.22
2022-08-29T09:50:07.427Z,52.51
2022-08-29T09:52:33.888Z,51.40
2022-08-29T09:55:00.187Z,52.64
2022-08-29T09:57:26.503Z,51.38
2022-08-29T09:59:52.825Z,52.80
2022-08-29T10:02:19.629Z,53.91
2022-08-29T10:04:46.043Z,51.79
2022-08-29T10:07:12.351Z,51.80
2022-08-29T10:09:38.648Z,52.74
2022-08-29T10:12:04.951Z,51.00
2022-08-29T10:14:31.250Z,49.83
2022-08-29T10:17:17.507Z,52.17
2022-08-29T10:19:43.811Z,49.41
2022-08-29T10:22:10.153Z,50.55
2022-08-29T10:24:36.471Z,51.09
2022-08-29T10:27:02.807Z,50.79
2022-08-29T10:29:31.737Z,49.97
2022-08-29T10:31:58.752Z,49.38
2022-08-29T10:34:25.080Z,50.42
2022-08-29T10:36:51.500Z,50.13
2022-08-29T10:39:19.213Z,50.00
2022-08-29T10:41:50.070Z,50.30
2022-08-29T10:46:48.687Z,49.57
2022-08-29T10:49:16.308Z,51.17
2022-08-29T10:51:42.770Z,50.07
2022-08-29T10:54:09.109Z,49.40
2022-08-29T10:56:35.431Z,50.91
2022-08-29T10:59:01.771Z,49.28
2022-08-29T11:01:28.248Z,51.12
2022-08-29T11:03:54.949Z,49.29
2022-08-29T11:06:22.466Z,49.02
2022-08-29T11:08:50.566Z,49.73
2022-08-29T11:11:16.873Z,49.71
2022-08-29T11:13:43.183Z,48.84
2022-08-29T11:16:09.557Z,50.30
2022-08-29T11:18:35.908Z,49.77
2022-08-29T11:21:02.219Z,50.22
2022-08-29T11:23:28.587Z,49.29
2022-08-29T11:25:55.183Z,49.13
2022-08-29T11:28:21.481Z,47.91
2022-08-29T11:30:48.353Z,47.87
2022-08-29T11:33:14.886Z,47.42
2022-08-29T11:35:41.292Z,47.81
2022-08-29T11:38:07.597Z,48.32
2022-08-29T11:43:24.879Z,46.50
2022-08-29T11:45:51.181Z,47.02
2022-08-29T11:48:17.504Z,46.30
2022-08-29T11:50:43.843Z,45.54
2022-08-29T11:53:10.511Z,47.04
2022-08-29T11:55:36.853Z,47.17
2022-08-29T11:58:05.184Z,47.36
2022-08-29T12:00:33.503Z,46.39
2022-08-29T12:02:59.935Z,46.45
2022-08-29T12:05:26.223Z,46.59
2022-08-29T12:07:52.521Z,46.34
2022-08-29T12:10:18.807Z,47.09
2022-08-29T12:12:45.549Z,45.59
2022-08-29T12:15:11.861Z,45.04
2022-08-29T12:18:00.526Z,46.09
2022-08-29T12:20:24.479Z,44.08
2022-08-29T12:22:50.777Z,45.15
2022-08-29T12:25:20.869Z,45.26
2022-08-29T12:27:47.180Z,46.39
2022-08-29T12:30:13.646Z,47.04
2022-08-29T12:32:40.349Z,45.51
2022-08-29T12:35:06.679Z,45.81
2022-08-29T12:37:33.969Z,46.04
2022-08-29T12:40:00.290Z,44.70
2022-08-29T12:42:26.677Z,45.36
2022-08-29T12:47:24.249Z,45.81
2022-08-29T12:49:54.002Z,45.63
2022-08-29T12:52:20.295Z,45.55
2022-08-29T12:54:46.943Z,45.99
2022-08-29T12:57:13.262Z,45.67
2022-08-29T12:59:39.577Z,46.07
2022-08-29T13:02:06.861Z,46.35
2022-08-29T13:04:33.814Z,46.14
2022-08-29T13:07:00.482Z,44.54
2022-08-29T13:09:26.788Z,46.00
2022-08-29T13:11:53.171Z,44.90
2022-08-29T13:14:21.258Z,44.70
2022-08-29T13:16:47.563Z,45.32
2022-08-29T13:19:13.894Z,44.38
2022-08-29T13:21:40.221Z,46.93
2022-08-29T13:24:06.595Z,46.69
2022-08-29T13:26:34.108Z,45.24
2022-08-29T13:29:01.075Z,45.35
2022-08-29T13:31:30.452Z,45.71
2022-08-29T13:33:56.860Z,45.44
2022-08-29T13:36:23.491Z,45.79
2022-08-29T13:38:49.797Z,46.02
2022-08-29T13:41:16.087Z,44.72
2022-08-29T13:43:43.246Z,45.17
2022-08-29T13:46:14.126Z,45.79
2022-08-29T13:48:41.091Z,46.29
2022-08-29T13:51:07.402Z,45.08
2022-08-29T13:53:33.698Z,45.35
2022-08-29T13:56:00.007Z,44.85
2022-08-29T13:58:26.835Z,45.50
2022-08-29T14:00:53.573Z,46.46
2022-08-29T14:03:20.448Z,45.15
2022-08-29T14:05:46.922Z,44.81
2022-08-29T14:08:13.232Z,46.09
2022-08-29T14:10:39.526Z,44.28
2022-08-29T14:13:05.821Z,43.53
2022-08-29T14:15:32.178Z,44.82
2022-08-29T14:17:58.479Z,44.86
2022-08-29T14:20:24.784Z,45.74
2022-08-29T14:22:51.083Z,44.25
2022-08-29T14:25:17.371Z,44.51
2022-08-29T14:27:43.675Z,44.65
2022-08-29T14:30:10.344Z,45.14
2022-08-29T14:32:38.510Z,44.00
2022-08-29T14:35:04.862Z,45.97
2022-08-29T14:37:31.834Z,45.42
2022-08-29T14:39:58.323Z,44.29
2022-08-29T14:42:26.509Z,44.04
2022-08-29T14:44:52.880Z,44.25
2022-08-29T14:47:19.219Z,45.28
2022-08-29T14:49:45.524Z,45.81
2022-08-29T14:52:15.209Z,46.21
2022-08-29T14:54:42.583Z,45.73
2022-08-29T14:57:08.867Z,47.19
2022-08-29T14:59:36.017Z,46.12
2022-08-29T15:02:02.446Z,46.09
2022-08-29T15:04:35.623Z,45.94
2022-08-29T15:07:03.566Z,47.49
2022-08-29T15:09:29.996Z,48.07
2022-08-29T15:11:56.344Z,47.09
2022-08-29T15:14:22.656Z,47.73
2022-08-29T15:16:48.947Z,47.13
2022-08-29T15:19:45.244Z,46.94
2022-08-29T15:22:01.530Z,46.91
2022-08-29T15:24:27.852Z,48.09
2022-08-29T15:26:56.139Z,47.64
2022-08-29T15:29:22.435Z,47.48
2022-08-29T15:31:48.736Z,47.51
2022-08-29T15:34:15.050Z,47.56
2022-08-29T15:36:41.522Z,47.45
2022-08-29T15:39:09.484Z,46.85
2022-08-29T15:41:35.852Z,47.86
2022-08-29T15:44:02.220Z,48.67
2022-08-29T15:46:29.039Z,48.45
2022-08-29T15:48:55.375Z,48.71
2022-08-29T15:51:21.674Z,48.24
2022-08-29T15:53:47.993Z,48.21
2022-08-29T15:56:14.396Z,48.45
2022-08-29T15:58:40.697Z,48.81
2022-08-29T16:01:07.143Z,48.50
2022-08-29T16:03:33.524Z,48.63
2022-08-29T16:06:00.102Z,48.38
2022-08-29T16:08:29.819Z,49.05
2022-08-29T16:10:56.185Z,48.58
2022-08-29T16:13:22.559Z,48.89
2022-08-29T16:15:50.072Z,48.61
2022-08-29T16:18:16.612Z,47.77
2022-08-29T16:20:43.428Z,48.07
2022-08-29T16:23:09.907Z,48.25
2022-08-29T16:25:36.452Z,48.34
2022-08-29T16:28:08.015Z,48.67
2022-08-29T16:30:34.368Z,48.83
2022-08-29T16:33:01.598Z,49.25
2022-08-29T16:35:28.353Z,49.17
2022-08-29T16:38:02.718Z,49.97
2022-08-29T16:40:29.858Z,50.21
2022-08-29T16:42:56.466Z,49.96
2022-08-29T16:45:22.769Z,49.39
2022-08-29T16:47:49.086Z,50.22
2022-08-29T16:50:16.787Z,49.88
2022-08-29T16:52:44.281Z,49.94
2022-08-29T16:55:10.589Z,49.94
2022-08-29T16:57:36.888Z,50.08
2022-08-29T17:00:03.213Z,50.32
2022-08-29T17:02:29.615Z,50.41
2022-08-29T17:04:55.968Z,50.70
2022-08-29T17:07:32.319Z,50.99
2022-08-29T17:09:58.585Z,51.53
2022-08-29T17:12:24.847Z,51.73
2022-08-29T17:14:54.791Z,52.34
2022-08-29T17:17:21.452Z,52.51
2022-08-29T17:19:47.781Z,52.47
2022-08-29T17:22:15.779Z,53.14
2022-08-29T17:24:42.104Z,53.65
2022-08-29T17:27:10.295Z,53.70
2022-08-29T17:29:37.306Z,53.54
2022-08-29T17:32:03.615Z,52.85
2022-08-29T17:34:29.910Z,53.71
2022-08-29T17:36:56.203Z,54.07
2022-08-29T17:39:22.495Z,55.53
2022-08-29T17:41:49.623Z,55.56
2022-08-29T17:44:15.924Z,54.94
2022-08-29T17:46:42.526Z,55.77
2022-08-29T17:49:10.351Z,56.50
2022-08-29T17:51:36.642Z,56.17
2022-08-29T17:54:03.490Z,57.08
2022-08-29T17:56:29.825Z,56.69
2022-08-29T17:58:57.368Z,56.68
2022-08-29T18:01:23.864Z,57.77
2022-08-29T18:03:51.058Z,57.89
2022-08-29T18:06:18.706Z,57.71
2022-08-29T18:08:48.135Z,59.29
2022-08-29T18:11:15.588Z,58.69
2022-08-29T18:13:42.121Z,58.40
2022-08-29T18:16:09.438Z,58.67
2022-08-29T18:18:36.191Z,59.71
2022-08-29T18:21:02.701Z,59.35
2022-08-29T18:23:29.006Z,59.31
2022-08-29T18:25:55.372Z,58.49
2022-08-29T18:28:21.776Z,58.53
2022-08-29T18:30:48.245Z,59.31
2022-08-29T18:33:14.598Z,58.44
2022-08-29T18:35:40.891Z,58.35
2022-08-29T18:38:07.729Z,59.67
2022-08-29T18:40:38.905Z,60.33
2022-08-29T18:43:06.113Z,61.62
2022-08-29T18:45:34.481Z,61.43
2022-08-29T18:48:00.798Z,61.52
2022-08-29T18:50:36.538Z,61.68
2022-08-29T18:53:04.012Z,61.97
2022-08-29T18:55:30.485Z,61.74
2022-08-29T18:57:56.785Z,62.51
2022-08-29T19:00:24.877Z,62.62
2022-08-29T19:02:51.275Z,62.85
2022-08-29T19:05:18.369Z,63.14
2022-08-29T19:07:44.676Z,62.80
2022-08-29T19:10:10.965Z,62.97
2022-08-29T19:12:37.288Z,64.12
2022-08-29T19:15:04.229Z,64.31
2022-08-29T19:17:30.543Z,64.99
2022-08-29T19:20:15.325Z,65.05
2022-08-29T19:22:42.062Z,65.94
2022-08-29T19:25:08.662Z,65.73
2022-08-29T19:27:43.191Z,67.38
2022-08-29T19:30:09.809Z,66.80
2022-08-29T19:32:36.748Z,66.77
2022-08-29T19:35:03.149Z,67.88
2022-08-29T19:37:32.200Z,68.77
2022-08-29T19:39:58.532Z,70.04
2022-08-29T19:42:24.871Z,70.02
2022-08-29T19:44:51.181Z,69.23
2022-08-29T19:47:17.485Z,68.93
2022-08-29T19:49:45.289Z,68.95
2022-08-29T19:52:14.440Z,69.08
2022-08-29T19:54:40.746Z,68.90
2022-08-29T19:57:09.789Z,69.76
2022-08-29T19:59:40.000Z,69.81
2022-08-29T20:02:08.802Z,69.70
2022-08-29T20:04:35.145Z,69.61
2022-08-29T20:07:01.486Z,70.14
2022-08-29T20:09:28.444Z,69.58
2022-08-29T20:11:54.833Z,70.05
2022-08-29T20:14:21.132Z,70.12
2022-08-29T20:16:47.539Z,70.15
2022-08-29T20:19:15.715Z,70.31
2022-08-29T20:21:43.267Z,70.39
2022-08-29T20:24:10.286Z,70.50
2022-08-29T20:26:41.988Z,70.25
2022-08-29T20:29:08.311Z,70.79
2022-08-29T20:31:34.712Z,70.75
2022-08-29T20:34:01.033Z,71.29
2022-08-29T20:36:45.893Z,71.21
2022-08-29T20:39:12.192Z,71.69
2022-08-29T20:41:38.486Z,71.56
2022-08-29T20:44:07.492Z,71.27
2022-08-29T20:46:33.920Z,71.41
2022-08-29T20:49:01.399Z,71.94
2022-08-29T20:51:27.719Z,71.64
2022-08-29T20:53:54.147Z,71.95
2022-08-29T20:56:20.948Z,72.28
2022-08-29T20:58:47.257Z,72.38
2022-08-29T21:01:13.736Z,72.71
2022-08-29T21:03:58.768Z,72.96
2022-08-29T21:06:25.091Z,72.91
2022-08-29T21:08:51.400Z,72.77
2022-08-29T21:11:17.722Z,72.92
2022-08-29T21:13:50.053Z,72.83
2022-08-29T21:16:19.003Z,73.31
2022-08-29T21:18:45.404Z,73.42
2022-08-29T21:21:12.983Z,73.57
2022-08-29T21:23:39.267Z,73.26
2022-08-29T21:26:05.559Z,73.47
2022-08-29T21:28:34.956Z,73.98
2022-08-29T21:31:04.377Z,76.01
2022-08-29T21:33:33.268Z,75.64
2022-08-29T21:36:01.045Z,75.28
2022-08-29T21:38:27.519Z,75.37
2022-08-29T21:40:56.232Z,75.34
2022-08-29T21:43:22.550Z,74.72
2022-08-29T21:45:48.846Z,75.07
2022-08-29T21:48:15.157Z,74.91
2022-08-29T21:50:41.660Z,74.58
2022-08-29T21:53:08.021Z,74.78
2022-08-29T21:55:34.358Z,74.96
2022-08-29T21:58:01.617Z,75.02
2022-08-29T22:00:27.907Z,75.10
2022-08-29T22:02:54.443Z,75.38
2022-08-29T22:05:20.815Z,75.77
2022-08-29T22:07:47.159Z,75.57
2022-08-29T22:10:13.682Z,75.27
2022-08-29T22:12:39.987Z,75.90
2022-08-29T22:15:25.329Z,75.45
2022-08-29T22:17:51.636Z,75.64
2022-08-29T22:20:17.962Z,75.58
2022-08-29T22:22:44.280Z,76.42
2022-08-29T22:25:11.183Z,76.45
2022-08-29T22:27:37.479Z,75.75
2022-08-29T22:30:03.780Z,76.24
2022-08-29T22:32:32.326Z,76.35
2022-08-29T22:35:02.405Z,76.05
2022-08-29T22:37:28.729Z,76.05
2022-08-29T22:39:55.026Z,76.09
2022-08-29T22:42:21.351Z,76.25
2022-08-29T22:45:03.318Z,77.31
2022-08-29T22:47:31.163Z,77.46
2022-08-29T22:49:58.028Z,77.35
2022-08-29T22:52:24.576Z,77.47
2022-08-29T22:54:50.872Z,77.22
2022-08-29T22:57:17.161Z,77.68
2022-08-29T22:59:43.455Z,77.63
2022-08-29T23:02:09.745Z,78.17
2022-08-29T23:04:36.063Z,77.97
2022-08-29T23:07:02.395Z,77.88
2022-08-29T23:09:28.703Z,77.51
2022-08-29T23:12:01.718Z,77.15
2022-08-29T23:14:28.696Z,77.06
2022-08-29T23:16:55.121Z,77.32
2022-08-29T23:19:21.448Z,77.56
2022-08-29T23:21:48.303Z,78.05
2022-08-29T23:24:16.916Z,77.85
2022-08-29T23:26:43.175Z,77.77
2022-08-29T23:29:09.470Z,78.66
2022-08-29T23:31:35.844Z,78.43
2022-08-29T23:34:02.503Z,78.32
2022-08-29T23:36:28.795Z,78.21
2022-08-29T23:38:55.106Z,78.98
2022-08-29T23:41:22.191Z,78.89
2022-08-29T23:43:48.528Z,78.65
2022-08-29T23:46:14.891Z,78.74
2022-08-29T23:48:41.291Z,78.45
2022-08-29T23:51:07.590Z,78.67
2022-08-29T23:53:34.308Z,78.28
2022-08-29T23:56:00.603Z,78.61
2022-08-29T23:58:26.984Z,78.50
